Time;durP1;ratioP1;P1;durP2;ratioP2;P2;SDS_P1;SDS_P2;PMS_P1;PMS_P2;Temp;Humidity;BMP_temperature;BMP_pressure;BME280_temperature;BME280_humidity;BME280_pressure;Samples;Min_cycle;Max_cycle;Signal;HPM_P1;HPM_P2
2022/12/11 00:00:51;;;;;;;;;35.25;29.75;;;;;;;;5055333;28;45601;-81
2022/12/11 00:03:19;;;;;;;;;36.00;28.25;;;;;;;;5052403;28;45677;-82
2022/12/11 00:05:44;;;;;;;;;26.00;19.00;;;;;;;;5048086;28;44897;-81
2022/12/11 00:08:18;;;;;;;;;23.50;17.50;;;;;;;;5067888;28;45355;-82
2022/12/11 00:10:48;;;;;;;;;29.00;26.75;;;;;;;;5062997;28;46067;-81
2022/12/11 00:13:14;;;;;;;;;31.00;22.25;;;;;;;;5053461;28;45707;-82
2022/12/11 00:15:40;;;;;;;;;26.75;23.75;;;;;;;;5041275;28;45744;-80
2022/12/11 00:18:07;;;;;;;;;27.00;21.25;;;;;;;;5044094;28;45376;-81
2022/12/11 00:20:32;;;;;;;;;26.25;23.75;;;;;;;;5043342;28;48593;-83
2022/12/11 00:22:59;;;;;;;;;26.50;22.50;;;;;;;;5044404;28;45548;-81
2022/12/11 00:25:24;;;;;;;;;24.50;19.50;;;;;;;;5048226;28;45754;-81
2022/12/11 00:27:50;;;;;;;;;27.00;25.25;;;;;;;;5069500;28;45411;-81
2022/12/11 00:30:19;;;;;;;;;25.00;20.75;;;;;;;;5064033;28;45854;-81
2022/12/11 00:33:01;;;;;;;;;33.00;20.25;;;;;;;;5061275;28;45876;-81
2022/12/11 00:35:27;;;;;;;;;25.25;17.00;;;;;;;;5036966;28;45785;-82
2022/12/11 00:37:52;;;;;;;;;30.50;20.50;;;;;;;;5039178;28;45719;-81
2022/12/11 00:40:18;;;;;;;;;23.25;21.50;;;;;;;;5044536;28;45591;-83
2022/12/11 00:42:44;;;;;;;;;23.50;16.75;;;;;;;;5040561;28;45650;-83
2022/12/11 00:45:10;;;;;;;;;26.25;21.50;;;;;;;;5052448;28;45602;-81
2022/12/11 00:47:35;;;;;;;;;25.25;22.75;;;;;;;;5057701;28;45451;-81
2022/12/11 00:50:01;;;;;;;;;19.50;16.25;;;;;;;;5029993;28;45927;-81
2022/12/11 00:52:26;;;;;;;;;20.75;19.00;;;;;;;;5030057;28;45590;-81
2022/12/11 00:54:52;;;;;;;;;25.00;18.00;;;;;;;;5060724;28;46292;-80
2022/12/11 00:57:17;;;;;;;;;22.00;19.25;;;;;;;;5055455;28;45378;-82
2022/12/11 00:59:42;;;;;;;;;17.75;15.50;;;;;;;;5035629;28;47570;-82
2022/12/11 01:02:08;;;;;;;;;20.50;17.25;;;;;;;;5056470;28;45434;-81
2022/12/11 01:04:34;;;;;;;;;19.50;16.00;;;;;;;;5066325;28;45717;-82
2022/12/11 01:06:59;;;;;;;;;28.25;18.25;;;;;;;;5081303;28;45752;-80
2022/12/11 01:12:09;;;;;;;;;22.75;17.25;;;;;;;;5056875;28;44812;-81
2022/12/11 01:14:47;;;;;;;;;23.50;18.25;;;;;;;;5063664;28;45370;-81
2022/12/11 01:17:12;;;;;;;;;22.75;18.00;;;;;;;;5031264;28;46521;-81
2022/12/11 01:19:39;;;;;;;;;24.75;19.00;;;;;;;;5050686;28;45819;-81
2022/12/11 01:22:05;;;;;;;;;23.50;13.75;;;;;;;;5035834;28;45494;-82
2022/12/11 01:24:31;;;;;;;;;19.50;18.00;;;;;;;;5056083;28;45432;-82
2022/12/11 01:26:56;;;;;;;;;22.25;18.50;;;;;;;;5062250;28;45829;-81
2022/12/11 01:29:22;;;;;;;;;21.75;17.00;;;;;;;;5079075;28;46525;-82
2022/12/11 01:31:47;;;;;;;;;23.25;19.75;;;;;;;;5078504;28;45502;-81
2022/12/11 01:34:12;;;;;;;;;23.75;22.00;;;;;;;;5057328;28;44737;-81
2022/12/11 01:36:38;;;;;;;;;23.25;17.00;;;;;;;;5073811;28;44829;-82
2022/12/11 01:39:03;;;;;;;;;34.00;21.75;;;;;;;;5053685;28;46011;-82
2022/12/11 01:41:29;;;;;;;;;19.75;15.75;;;;;;;;5089126;28;45335;-83
2022/12/11 01:43:56;;;;;;;;;25.50;20.00;;;;;;;;5075177;28;44807;-82
2022/12/11 01:46:30;;;;;;;;;23.00;17.00;;;;;;;;5046254;28;45626;-81
2022/12/11 01:48:59;;;;;;;;;33.00;20.75;;;;;;;;5054454;28;45420;-81
2022/12/11 01:51:25;;;;;;;;;26.25;21.00;;;;;;;;5047360;28;45706;-82
2022/12/11 01:53:55;;;;;;;;;22.00;18.00;;;;;;;;5058388;28;45351;-82
2022/12/11 01:56:20;;;;;;;;;18.00;17.25;;;;;;;;5060085;28;45868;-83
2022/12/11 01:58:53;;;;;;;;;25.75;19.00;;;;;;;;5067120;28;45406;-83
2022/12/11 02:01:30;;;;;;;;;20.00;16.25;;;;;;;;5048163;28;45482;-82
2022/12/11 02:03:59;;;;;;;;;17.50;14.75;;;;;;;;5063749;28;45344;-83
2022/12/11 02:06:37;;;;;;;;;27.75;21.75;;;;;;;;5045693;28;45442;-83
2022/12/11 02:09:26;;;;;;;;;28.00;18.00;;;;;;;;5067755;28;46256;-81
2022/12/11 02:11:50;;;;;;;;;24.50;17.50;;;;;;;;5071190;28;45728;-83
2022/12/11 02:14:31;;;;;;;;;26.75;18.50;;;;;;;;5035062;28;45494;-82
2022/12/11 02:17:05;;;;;;;;;22.50;18.75;;;;;;;;5039687;28;46524;-83
2022/12/11 02:19:49;;;;;;;;;20.75;18.00;;;;;;;;5052267;28;46714;-83
2022/12/11 02:22:28;;;;;;;;;28.50;21.25;;;;;;;;5071301;28;45600;-83
2022/12/11 02:25:08;;;;;;;;;22.00;17.00;;;;;;;;5029282;28;45812;-82
2022/12/11 02:27:36;;;;;;;;;18.75;13.50;;;;;;;;5028928;28;45455;-81
2022/12/11 02:30:06;;;;;;;;;35.75;24.50;;;;;;;;5039449;28;45742;-82
2022/12/11 02:32:42;;;;;;;;;21.75;16.75;;;;;;;;5045555;28;45404;-82
2022/12/11 02:35:14;;;;;;;;;27.00;21.25;;;;;;;;5045286;28;45697;-81
2022/12/11 02:37:41;;;;;;;;;24.50;21.50;;;;;;;;5066876;28;45569;-80
2022/12/11 02:40:08;;;;;;;;;27.25;19.50;;;;;;;;5033594;28;45721;-82
2022/12/11 02:42:35;;;;;;;;;22.25;16.00;;;;;;;;5030147;28;45760;-80
2022/12/11 02:45:00;;;;;;;;;19.25;17.00;;;;;;;;5035600;28;45850;-81
2022/12/11 02:47:29;;;;;;;;;23.00;17.25;;;;;;;;5038851;28;45713;-80
2022/12/11 02:49:57;;;;;;;;;16.50;15.75;;;;;;;;5054851;28;45517;-80
2022/12/11 02:52:24;;;;;;;;;23.50;19.50;;;;;;;;5054011;28;45664;-82
2022/12/11 02:54:50;;;;;;;;;21.50;13.50;;;;;;;;5044921;28;45857;-80
2022/12/11 02:57:20;;;;;;;;;21.50;14.00;;;;;;;;5055198;28;45569;-81
2022/12/11 02:59:46;;;;;;;;;22.25;18.75;;;;;;;;5042783;28;47259;-81
2022/12/11 03:02:14;;;;;;;;;19.50;16.25;;;;;;;;5049241;28;45610;-81
2022/12/11 03:04:41;;;;;;;;;16.50;10.50;;;;;;;;5047739;28;45807;-79
2022/12/11 03:07:12;;;;;;;;;19.50;17.50;;;;;;;;5048497;28;45475;-81
2022/12/11 03:09:39;;;;;;;;;16.75;15.00;;;;;;;;5066179;28;45718;-81
2022/12/11 03:12:05;;;;;;;;;22.00;18.00;;;;;;;;5041408;28;45571;-81
2022/12/11 03:14:30;;;;;;;;;25.50;14.00;;;;;;;;5068335;28;45421;-82
2022/12/11 03:17:03;;;;;;;;;18.50;16.25;;;;;;;;5055788;28;45564;-82
2022/12/11 03:19:34;;;;;;;;;19.75;17.00;;;;;;;;5076344;28;46143;-80
2022/12/11 03:22:09;;;;;;;;;18.75;14.25;;;;;;;;5037431;28;45499;-81
2022/12/11 03:24:41;;;;;;;;;23.00;16.75;;;;;;;;5034392;28;45471;-82
2022/12/11 03:27:15;;;;;;;;;16.00;14.50;;;;;;;;5037001;28;46071;-81
2022/12/11 03:29:46;;;;;;;;;16.50;15.00;;;;;;;;5048600;28;45858;-81
2022/12/11 03:32:23;;;;;;;;;17.00;15.75;;;;;;;;5038874;28;46218;-81
2022/12/11 03:34:53;;;;;;;;;16.25;15.50;;;;;;;;5060505;28;45446;-81
2022/12/11 03:37:27;;;;;;;;;20.00;13.00;;;;;;;;5047080;28;46167;-82
2022/12/11 03:39:57;;;;;;;;;21.50;17.50;;;;;;;;5050434;28;45658;-81
2022/12/11 03:42:24;;;;;;;;;18.75;17.25;;;;;;;;5038937;28;45367;-79
2022/12/11 03:44:53;;;;;;;;;23.25;18.25;;;;;;;;5056043;28;45930;-80
2022/12/11 03:47:21;;;;;;;;;16.75;14.75;;;;;;;;5041989;28;46965;-79
2022/12/11 03:49:47;;;;;;;;;14.50;13.25;;;;;;;;5052820;28;46996;-81
2022/12/11 03:52:14;;;;;;;;;16.00;13.00;;;;;;;;5039954;28;45697;-80
2022/12/11 03:54:40;;;;;;;;;21.25;15.75;;;;;;;;5054136;28;45732;-80
2022/12/11 03:57:07;;;;;;;;;16.00;15.25;;;;;;;;5037957;28;46244;-82
2022/12/11 03:59:33;;;;;;;;;18.75;17.75;;;;;;;;5054169;28;45864;-80
2022/12/11 04:01:59;;;;;;;;;22.50;14.75;;;;;;;;5055566;28;45468;-80
2022/12/11 04:04:28;;;;;;;;;16.50;13.00;;;;;;;;5037874;28;45415;-80
2022/12/11 04:06:53;;;;;;;;;20.00;16.25;;;;;;;;5047408;28;45617;-80
2022/12/11 04:09:18;;;;;;;;;14.50;13.00;;;;;;;;5057465;28;45466;-79
2022/12/11 04:11:43;;;;;;;;;17.50;15.00;;;;;;;;5066829;28;45691;-77
2022/12/11 04:16:55;;;;;;;;;12.50;12.25;;;;;;;;5046604;28;45770;-79
2022/12/11 04:24:49;;;;;;;;;22.00;16.00;;;;;;;;5064353;28;45900;-81
2022/12/11 04:27:47;;;;;;;;;16.00;14.00;;;;;;;;5035673;28;45875;-79
2022/12/11 04:30:04;;;;;;;;;15.00;14.25;;;;;;;;5054842;28;45885;-81
2022/12/11 04:32:29;;;;;;;;;19.75;13.50;;;;;;;;5043836;28;45880;-82
2022/12/11 04:34:55;;;;;;;;;17.25;13.25;;;;;;;;5056590;28;45636;-80
2022/12/11 04:37:26;;;;;;;;;12.25;12.00;;;;;;;;5064719;28;45981;-83
2022/12/11 04:39:57;;;;;;;;;15.50;13.75;;;;;;;;5058365;28;45674;-82
2022/12/11 04:42:22;;;;;;;;;16.00;12.25;;;;;;;;5060081;28;45701;-82
2022/12/11 04:44:48;;;;;;;;;16.50;13.25;;;;;;;;5053024;28;45773;-83
2022/12/11 04:47:14;;;;;;;;;18.00;16.75;;;;;;;;5041135;28;45726;-80
2022/12/11 04:49:39;;;;;;;;;17.50;15.00;;;;;;;;5040400;28;45457;-81
2022/12/11 04:52:04;;;;;;;;;15.75;15.75;;;;;;;;5040663;28;45766;-81
2022/12/11 04:54:30;;;;;;;;;14.75;13.25;;;;;;;;5041443;28;45384;-82
2022/12/11 04:56:55;;;;;;;;;17.75;14.25;;;;;;;;5053795;28;45423;-80
2022/12/11 04:59:21;;;;;;;;;17.50;16.50;;;;;;;;5034015;28;45545;-80
2022/12/11 05:01:46;;;;;;;;;12.00;12.00;;;;;;;;5055617;28;45215;-80
2022/12/11 05:04:12;;;;;;;;;12.25;11.00;;;;;;;;5051954;28;46648;-79
2022/12/11 05:06:44;;;;;;;;;16.00;14.00;;;;;;;;5057604;28;45505;-79
2022/12/11 05:09:30;;;;;;;;;14.50;12.50;;;;;;;;5040762;28;47818;-80
2022/12/11 05:11:55;;;;;;;;;14.50;12.00;;;;;;;;5056747;28;45402;-79
2022/12/11 05:14:25;;;;;;;;;14.75;13.25;;;;;;;;5055795;28;45460;-81
2022/12/11 05:16:51;;;;;;;;;19.75;13.25;;;;;;;;5041866;28;45462;-81
2022/12/11 05:19:18;;;;;;;;;16.25;15.00;;;;;;;;5059011;28;45710;-82
2022/12/11 05:21:44;;;;;;;;;12.75;11.00;;;;;;;;5038785;28;45442;-81
2022/12/11 05:24:09;;;;;;;;;17.25;13.25;;;;;;;;5070138;28;45468;-82
2022/12/11 05:26:35;;;;;;;;;13.75;9.50;;;;;;;;5067354;28;45687;-82
2022/12/11 05:29:01;;;;;;;;;11.50;8.50;;;;;;;;5030401;28;45737;-82
2022/12/11 05:31:27;;;;;;;;;12.50;12.00;;;;;;;;5043261;28;45758;-82
2022/12/11 05:33:53;;;;;;;;;12.00;10.50;;;;;;;;5031236;28;45397;-82
2022/12/11 05:36:26;;;;;;;;;15.00;11.50;;;;;;;;5033824;28;46662;-81
2022/12/11 05:38:55;;;;;;;;;13.50;11.25;;;;;;;;5036902;28;45670;-84
2022/12/11 05:41:33;;;;;;;;;18.50;14.25;;;;;;;;5039886;28;45591;-82
2022/12/11 05:44:04;;;;;;;;;15.00;12.75;;;;;;;;5044963;28;45496;-82
2022/12/11 05:46:33;;;;;;;;;9.25;6.50;;;;;;;;5039106;28;45602;-81
2022/12/11 05:49:00;;;;;;;;;14.50;11.25;;;;;;;;5039176;28;46566;-80
2022/12/11 05:51:26;;;;;;;;;16.00;13.25;;;;;;;;5050077;28;45682;-78
2022/12/11 05:53:52;;;;;;;;;15.50;11.75;;;;;;;;5047924;28;45467;-79
2022/12/11 05:56:20;;;;;;;;;14.50;12.50;;;;;;;;5044920;28;45561;-78
2022/12/11 05:58:45;;;;;;;;;17.75;13.75;;;;;;;;5025956;28;47211;-79
2022/12/11 06:01:16;;;;;;;;;19.75;16.25;;;;;;;;5048780;28;45426;-80
2022/12/11 06:03:41;;;;;;;;;7.25;7.25;;;;;;;;5046013;28;45388;-79
2022/12/11 06:06:07;;;;;;;;;20.25;16.75;;;;;;;;5029428;28;46636;-79
2022/12/11 06:08:32;;;;;;;;;14.75;12.75;;;;;;;;5033161;28;45610;-80
2022/12/11 06:10:58;;;;;;;;;14.25;11.50;;;;;;;;5031604;28;45996;-81
2022/12/11 06:13:24;;;;;;;;;21.50;13.75;;;;;;;;5030415;28;45511;-82
2022/12/11 06:15:51;;;;;;;;;15.75;15.00;;;;;;;;5040909;28;45844;-82
2022/12/11 06:18:17;;;;;;;;;16.50;14.75;;;;;;;;5032910;28;45939;-81
2022/12/11 06:20:45;;;;;;;;;15.75;14.25;;;;;;;;5031920;28;45805;-80
2022/12/11 06:23:20;;;;;;;;;17.75;13.50;;;;;;;;5037150;28;45783;-82
2022/12/11 06:25:47;;;;;;;;;19.75;16.50;;;;;;;;5042957;28;45441;-83
2022/12/11 06:28:12;;;;;;;;;15.75;12.75;;;;;;;;5037575;28;46325;-83
2022/12/11 06:30:39;;;;;;;;;18.50;14.25;;;;;;;;5041601;28;45572;-81
2022/12/11 06:33:04;;;;;;;;;18.75;16.00;;;;;;;;5039804;28;45399;-80
2022/12/11 06:35:33;;;;;;;;;19.75;14.75;;;;;;;;5035646;28;46300;-78
2022/12/11 06:38:01;;;;;;;;;19.50;15.25;;;;;;;;5034917;28;46112;-83
2022/12/11 06:40:27;;;;;;;;;22.50;16.00;;;;;;;;5034916;28;45332;-76
2022/12/11 06:42:53;;;;;;;;;18.00;13.50;;;;;;;;5035155;28;45363;-80
2022/12/11 06:45:21;;;;;;;;;21.50;16.25;;;;;;;;5032378;28;46375;-83
2022/12/11 06:47:47;;;;;;;;;19.50;15.75;;;;;;;;5038934;28;45521;-77
2022/12/11 06:50:12;;;;;;;;;14.75;11.50;;;;;;;;5032258;28;45905;-78
2022/12/11 06:52:37;;;;;;;;;16.75;14.25;;;;;;;;5035161;28;45480;-79
2022/12/11 06:55:03;;;;;;;;;21.50;14.00;;;;;;;;5029985;28;45379;-80
2022/12/11 07:07:08;;;;;;;;;19.00;12.50;;;;;;;;4998973;28;45798;-86
2022/12/11 07:09:38;;;;;;;;;20.50;17.25;;;;;;;;4998120;28;46111;-85
2022/12/11 07:15:06;;;;;;;;;21.75;16.25;;;;;;;;5038338;28;45791;-81
2022/12/11 07:17:32;;;;;;;;;24.25;19.50;;;;;;;;5036260;28;45914;-82
2022/12/11 07:19:58;;;;;;;;;24.00;19.75;;;;;;;;5032306;28;46942;-82
2022/12/11 07:22:27;;;;;;;;;21.25;18.50;;;;;;;;5035598;28;45621;-80
2022/12/11 07:24:55;;;;;;;;;26.00;21.75;;;;;;;;5031894;28;45641;-77
2022/12/11 07:27:21;;;;;;;;;25.25;19.50;;;;;;;;5028064;28;45515;-78
2022/12/11 07:29:47;;;;;;;;;21.75;17.75;;;;;;;;5046645;28;46561;-78
2022/12/11 07:32:13;;;;;;;;;28.75;20.75;;;;;;;;5045538;28;46903;-79
2022/12/11 07:34:38;;;;;;;;;21.25;18.00;;;;;;;;5048338;28;45408;-78
2022/12/11 07:37:04;;;;;;;;;26.75;20.00;;;;;;;;5041094;28;45743;-79
2022/12/11 07:39:29;;;;;;;;;19.50;18.25;;;;;;;;5031963;28;45351;-79
2022/12/11 07:41:55;;;;;;;;;20.25;16.25;;;;;;;;5049421;28;44802;-79
2022/12/11 07:44:20;;;;;;;;;16.00;16.00;;;;;;;;5048647;28;45798;-79
2022/12/11 07:46:46;;;;;;;;;25.25;18.50;;;;;;;;5050931;28;45744;-80
2022/12/11 07:49:13;;;;;;;;;22.25;17.00;;;;;;;;5050237;28;45564;-81
2022/12/11 07:51:39;;;;;;;;;28.25;24.50;;;;;;;;5052125;28;45344;-82
2022/12/11 07:54:11;;;;;;;;;19.25;16.50;;;;;;;;5055129;28;45121;-82
2022/12/11 07:56:37;;;;;;;;;24.75;22.75;;;;;;;;5062320;28;45662;-79
2022/12/11 07:59:04;;;;;;;;;26.50;23.00;;;;;;;;5067510;28;45207;-82
2022/12/11 08:01:42;;;;;;;;;;;;;;;;;;;;;
2022/12/11 08:04:17;;;;;;;;;26.50;21.50;;;;;;;;5008867;28;44807;-83
2022/12/11 08:06:48;;;;;;;;;31.25;24.00;;;;;;;;5043572;28;45736;-86
2022/12/11 08:09:15;;;;;;;;;36.75;24.75;;;;;;;;5063933;28;45250;-85
2022/12/11 08:11:42;;;;;;;;;33.25;25.00;;;;;;;;5074156;27;44845;-89
2022/12/11 08:14:08;;;;;;;;;30.75;26.25;;;;;;;;5065879;28;44807;-86
2022/12/11 08:16:35;;;;;;;;;28.25;23.00;;;;;;;;5064306;28;46471;-85
2022/12/11 08:19:02;;;;;;;;;28.00;26.00;;;;;;;;5067606;27;45318;-86
2022/12/11 08:21:28;;;;;;;;;32.25;25.00;;;;;;;;5068132;28;44777;-87
2022/12/11 08:23:55;;;;;;;;;30.25;24.25;;;;;;;;5064427;28;44732;-87
2022/12/11 08:26:30;;;;;;;;;33.50;27.50;;;;;;;;5064600;27;44817;-87
2022/12/11 08:28:56;;;;;;;;;37.00;27.25;;;;;;;;5060758;28;45471;-86
2022/12/11 08:31:23;;;;;;;;;34.00;30.50;;;;;;;;5070713;27;44829;-87
2022/12/11 08:33:49;;;;;;;;;37.75;31.75;;;;;;;;5065340;28;44825;-83
2022/12/11 08:36:43;;;;;;;;;32.75;27.50;;;;;;;;5057107;28;45425;-88
2022/12/11 08:39:16;;;;;;;;;48.75;35.50;;;;;;;;5029434;28;45112;-89
2022/12/11 08:41:49;;;;;;;;;39.50;31.50;;;;;;;;5071703;28;45484;-87
2022/12/11 08:44:18;;;;;;;;;64.50;44.75;;;;;;;;5064213;28;44768;-87
2022/12/11 08:46:47;;;;;;;;;37.25;34.75;;;;;;;;5063930;28;44790;-87
2022/12/11 08:49:16;;;;;;;;;44.50;35.00;;;;;;;;5062708;28;45439;-87
2022/12/11 08:51:48;;;;;;;;;46.00;36.50;;;;;;;;5057683;27;44741;-85
2022/12/11 08:57:21;;;;;;;;;40.50;31.25;;;;;;;;5061772;27;44685;-84
2022/12/11 08:59:46;;;;;;;;;34.25;27.00;;;;;;;;5074136;22;45787;-85
2022/12/11 09:02:17;;;;;;;;;36.50;31.50;;;;;;;;5026684;28;45788;-84
2022/12/11 09:04:43;;;;;;;;;43.00;32.25;;;;;;;;5033422;28;45763;-80
2022/12/11 09:07:08;;;;;;;;;35.00;28.75;;;;;;;;5029481;28;45839;-81
2022/12/11 09:09:33;;;;;;;;;35.25;29.00;;;;;;;;5027288;28;46729;-80
2022/12/11 09:12:00;;;;;;;;;50.00;37.75;;;;;;;;5029789;28;45408;-82
2022/12/11 09:14:25;;;;;;;;;36.00;25.25;;;;;;;;5028028;28;45666;-81
2022/12/11 09:16:50;;;;;;;;;43.00;35.25;;;;;;;;5033509;28;45513;-80
2022/12/11 09:19:16;;;;;;;;;41.25;31.25;;;;;;;;5028165;28;45433;-80
2022/12/11 09:21:42;;;;;;;;;37.50;34.75;;;;;;;;5024635;28;45247;-76
2022/12/11 09:24:09;;;;;;;;;44.50;36.00;;;;;;;;5035750;28;45350;-80
2022/12/11 09:26:35;;;;;;;;;44.00;33.00;;;;;;;;5026503;28;45739;-80
2022/12/11 09:29:02;;;;;;;;;39.75;32.00;;;;;;;;5030368;28;45378;-82
2022/12/11 09:31:29;;;;;;;;;41.25;32.00;;;;;;;;5035501;28;45384;-81
2022/12/11 09:33:55;;;;;;;;;26.50;22.25;;;;;;;;5031851;28;45652;-81
2022/12/11 09:36:21;;;;;;;;;40.25;28.25;;;;;;;;5028354;28;46158;-80
2022/12/11 09:38:46;;;;;;;;;41.00;27.00;;;;;;;;5027551;28;46575;-82
2022/12/11 09:41:15;;;;;;;;;33.50;30.25;;;;;;;;5021596;28;45977;-83
2022/12/11 09:43:45;;;;;;;;;38.25;32.50;;;;;;;;5021110;28;45571;-80
2022/12/11 09:46:13;;;;;;;;;33.25;28.75;;;;;;;;5033748;28;47095;-82
2022/12/11 09:48:40;;;;;;;;;33.50;33.50;;;;;;;;5022328;28;47018;-79
2022/12/11 09:51:11;;;;;;;;;32.75;27.25;;;;;;;;5026902;28;45432;-80
2022/12/11 09:53:37;;;;;;;;;25.25;16.50;;;;;;;;5028755;28;45396;-79
2022/12/11 09:56:08;;;;;;;;;29.75;27.50;;;;;;;;5032606;28;46953;-77
2022/12/11 09:58:52;;;;;;;;;39.50;31.75;;;;;;;;5030370;28;46859;-81
2022/12/11 10:01:28;;;;;;;;;33.00;27.50;;;;;;;;5026400;28;45281;-80
2022/12/11 10:04:08;;;;;;;;;28.50;24.50;;;;;;;;5011028;28;45552;-78
2022/12/11 10:06:40;;;;;;;;;52.75;41.00;;;;;;;;5018220;28;45614;-83
2022/12/11 10:09:11;;;;;;;;;41.25;31.75;;;;;;;;5018392;28;47129;-79
2022/12/11 10:11:45;;;;;;;;;40.25;31.50;;;;;;;;5011029;28;45373;-78
2022/12/11 10:14:10;;;;;;;;;33.25;27.50;;;;;;;;5012575;28;45500;-78
2022/12/11 10:16:42;;;;;;;;;38.50;31.25;;;;;;;;5023447;28;46454;-76
2022/12/11 10:19:14;;;;;;;;;32.50;26.00;;;;;;;;5015641;28;46637;-80
2022/12/11 10:21:40;;;;;;;;;31.25;29.25;;;;;;;;5015451;28;45712;-79
2022/12/11 10:24:13;;;;;;;;;31.50;28.00;;;;;;;;5001909;28;45506;-80
2022/12/11 10:26:38;;;;;;;;;42.25;35.25;;;;;;;;5008294;28;45937;-79
2022/12/11 10:29:05;;;;;;;;;40.75;33.50;;;;;;;;5011184;28;46641;-78
2022/12/11 10:31:30;;;;;;;;;52.00;40.25;;;;;;;;5013797;28;45762;-72
2022/12/11 10:33:55;;;;;;;;;66.50;51.25;;;;;;;;5000644;28;45688;-72
2022/12/11 10:36:32;;;;;;;;;30.00;21.75;;;;;;;;5013142;28;45872;-74
2022/12/11 10:38:58;;;;;;;;;31.25;28.75;;;;;;;;5004867;28;45804;-75
2022/12/11 10:41:31;;;;;;;;;35.25;29.50;;;;;;;;5009366;28;45450;-75
2022/12/11 10:43:57;;;;;;;;;80.50;61.75;;;;;;;;5010164;28;45975;-71
2022/12/11 10:46:24;;;;;;;;;34.75;28.25;;;;;;;;5007403;28;45785;-74
2022/12/11 10:48:52;;;;;;;;;54.50;39.00;;;;;;;;5007976;28;45639;-75
2022/12/11 10:51:17;;;;;;;;;74.25;52.25;;;;;;;;5008462;28;45510;-75
2022/12/11 10:53:48;;;;;;;;;93.50;69.25;;;;;;;;5007034;28;45747;-75
2022/12/11 10:56:13;;;;;;;;;72.00;52.50;;;;;;;;5024894;28;46809;-71
2022/12/11 10:58:46;;;;;;;;;48.50;36.00;;;;;;;;5007176;28;46180;-74
2022/12/11 11:01:15;;;;;;;;;30.50;27.50;;;;;;;;5026086;28;46407;-72
2022/12/11 11:04:11;;;;;;;;;38.50;34.00;;;;;;;;5022466;28;45603;-75
2022/12/11 11:06:36;;;;;;;;;44.00;33.50;;;;;;;;4996301;28;47624;-76
2022/12/11 11:09:02;;;;;;;;;63.50;49.00;;;;;;;;5007071;28;46664;-73
2022/12/11 11:11:31;;;;;;;;;52.25;36.50;;;;;;;;5027481;28;46536;-79
2022/12/11 11:14:04;;;;;;;;;41.00;32.25;;;;;;;;5007929;28;45754;-81
2022/12/11 11:16:30;;;;;;;;;32.33;28.00;;;;;;;;5031703;28;45966;-78
2022/12/11 11:18:56;;;;;;;;;38.25;31.25;;;;;;;;5026416;28;46130;-77
2022/12/11 11:21:23;;;;;;;;;25.75;21.50;;;;;;;;5032169;28;45483;-77
2022/12/11 11:23:49;;;;;;;;;34.75;28.25;;;;;;;;5018887;28;46006;-77
2022/12/11 11:26:16;;;;;;;;;32.75;27.50;;;;;;;;5013443;28;46152;-74
2022/12/11 11:28:45;;;;;;;;;28.50;24.75;;;;;;;;5035981;28;46751;-74
2022/12/11 11:31:13;;;;;;;;;31.25;30.50;;;;;;;;5022692;28;45439;-85
2022/12/11 11:33:53;;;;;;;;;31.75;26.50;;;;;;;;5030525;28;45422;-79
2022/12/11 11:36:20;;;;;;;;;34.25;27.75;;;;;;;;5033240;28;45319;-78
2022/12/11 11:38:49;;;;;;;;;34.75;30.75;;;;;;;;5031502;28;45341;-78
2022/12/11 11:41:14;;;;;;;;;48.50;40.00;;;;;;;;5024079;28;45859;-81
2022/12/11 11:43:45;;;;;;;;;38.25;32.25;;;;;;;;5022241;28;45466;-77
2022/12/11 11:46:14;;;;;;;;;41.00;35.75;;;;;;;;5015386;28;45967;-79
2022/12/11 11:48:45;;;;;;;;;57.75;41.75;;;;;;;;5018417;28;47717;-81
2022/12/11 11:51:14;;;;;;;;;50.00;38.75;;;;;;;;5032977;28;45295;-76
2022/12/11 11:53:41;;;;;;;;;38.00;31.75;;;;;;;;5037024;28;45361;-81
2022/12/11 11:56:25;;;;;;;;;54.00;43.50;;;;;;;;5037603;28;45881;-82
2022/12/11 11:58:50;;;;;;;;;54.50;42.50;;;;;;;;5018281;28;47338;-81
2022/12/11 12:01:17;;;;;;;;;30.75;30.75;;;;;;;;5035382;28;45637;-77
2022/12/11 12:03:44;;;;;;;;;40.75;35.25;;;;;;;;5045602;28;45805;-77
2022/12/11 12:06:18;;;;;;;;;36.25;30.00;;;;;;;;5035789;28;45480;-78
2022/12/11 12:08:58;;;;;;;;;33.25;26.25;;;;;;;;5028414;28;45429;-75
2022/12/11 12:11:56;;;;;;;;;31.00;26.00;;;;;;;;5032579;28;45393;-74
2022/12/11 12:14:31;;;;;;;;;33.50;30.50;;;;;;;;5014867;28;45503;-75
2022/12/11 12:16:56;;;;;;;;;39.75;32.75;;;;;;;;5023871;28;45502;-76
2022/12/11 12:19:32;;;;;;;;;36.00;34.25;;;;;;;;5030525;28;45477;-77
2022/12/11 12:22:04;;;;;;;;;40.25;35.00;;;;;;;;5024347;28;45789;-78
2022/12/11 12:24:35;;;;;;;;;35.75;28.25;;;;;;;;5026484;28;45454;-80
2022/12/11 12:27:22;;;;;;;;;35.25;28.50;;;;;;;;5009107;28;46491;-80
2022/12/11 12:29:57;;;;;;;;;39.75;33.00;;;;;;;;5004320;28;46047;-78
2022/12/11 12:32:49;;;;;;;;;63.75;48.50;;;;;;;;5022097;28;45801;-79
2022/12/11 12:35:34;;;;;;;;;43.50;33.50;;;;;;;;5009131;28;45578;-80
2022/12/11 12:38:05;;;;;;;;;44.00;35.50;;;;;;;;5016861;28;45782;-80
2022/12/11 12:40:31;;;;;;;;;39.25;34.00;;;;;;;;5024712;28;45903;-81
2022/12/11 12:43:08;;;;;;;;;43.50;34.50;;;;;;;;5025148;28;45382;-79
2022/12/11 12:45:37;;;;;;;;;33.00;28.00;;;;;;;;5015602;28;45809;-79
2022/12/11 12:48:02;;;;;;;;;47.00;35.00;;;;;;;;5027653;28;45835;-77
2022/12/11 12:50:35;;;;;;;;;47.00;38.00;;;;;;;;5035550;28;46136;-77
2022/12/11 12:53:01;;;;;;;;;45.50;37.25;;;;;;;;5006340;28;45791;-81
2022/12/11 12:55:30;;;;;;;;;35.75;32.50;;;;;;;;5035597;28;45671;-78
2022/12/11 12:58:02;;;;;;;;;37.50;28.50;;;;;;;;5033409;28;45492;-82
2022/12/11 13:00:35;;;;;;;;;36.00;33.00;;;;;;;;5016098;28;45977;-76
2022/12/11 13:03:01;;;;;;;;;32.25;28.25;;;;;;;;5033280;28;45828;-77
2022/12/11 13:05:32;;;;;;;;;43.25;36.00;;;;;;;;5028891;28;45529;-81
2022/12/11 13:07:59;;;;;;;;;47.00;39.25;;;;;;;;5013840;28;46178;-81
2022/12/11 13:10:30;;;;;;;;;35.50;30.50;;;;;;;;5033313;28;45814;-84
2022/12/11 13:12:56;;;;;;;;;48.25;36.50;;;;;;;;5021583;28;45736;-79
2022/12/11 13:15:42;;;;;;;;;53.00;44.00;;;;;;;;5040574;28;45573;-81
2022/12/11 13:18:26;;;;;;;;;53.00;39.00;;;;;;;;5008794;28;45816;-80
2022/12/11 13:20:52;;;;;;;;;41.00;31.25;;;;;;;;5008449;28;47600;-80
2022/12/11 13:23:26;;;;;;;;;47.75;36.50;;;;;;;;5038763;28;45788;-75
2022/12/11 13:25:52;;;;;;;;;86.00;60.50;;;;;;;;5028370;28;45351;-77
2022/12/11 13:28:21;;;;;;;;;51.25;40.75;;;;;;;;5036330;28;45822;-76
2022/12/11 13:31:15;;;;;;;;;67.00;50.00;;;;;;;;5027970;28;46279;-77
2022/12/11 13:33:48;;;;;;;;;56.25;40.25;;;;;;;;5008067;28;45884;-75
2022/12/11 13:36:14;;;;;;;;;64.50;51.25;;;;;;;;5032638;28;45410;-79
2022/12/11 13:38:45;;;;;;;;;53.00;39.25;;;;;;;;5041153;28;45835;-79
2022/12/11 13:41:11;;;;;;;;;56.50;42.50;;;;;;;;5028687;28;46499;-77
2022/12/11 13:43:37;;;;;;;;;63.75;47.75;;;;;;;;5030243;28;45903;-77
2022/12/11 13:46:04;;;;;;;;;42.00;33.25;;;;;;;;5033624;28;45798;-75
2022/12/11 13:48:35;;;;;;;;;39.00;35.25;;;;;;;;5022678;28;46973;-77
2022/12/11 13:51:01;;;;;;;;;42.00;36.25;;;;;;;;5037987;28;45583;-78
2022/12/11 13:53:27;;;;;;;;;52.75;38.25;;;;;;;;5039330;28;45862;-80
2022/12/11 13:56:03;;;;;;;;;59.75;45.25;;;;;;;;5037051;28;45438;-79
2022/12/11 13:58:30;;;;;;;;;38.25;33.00;;;;;;;;5035343;28;45615;-81
2022/12/11 14:01:16;;;;;;;;;40.00;31.50;;;;;;;;5034158;28;46244;-81
2022/12/11 14:03:47;;;;;;;;;41.25;36.75;;;;;;;;5055428;28;45748;-78
2022/12/11 14:06:13;;;;;;;;;36.00;32.25;;;;;;;;5031343;28;45749;-78
2022/12/11 14:08:40;;;;;;;;;41.50;36.25;;;;;;;;5034176;28;47216;-77
2022/12/11 14:11:06;;;;;;;;;44.25;36.25;;;;;;;;5059009;28;45088;-78
2022/12/11 14:13:36;;;;;;;;;43.75;36.75;;;;;;;;5056724;28;45266;-80
2022/12/11 14:16:02;;;;;;;;;44.50;35.00;;;;;;;;5053327;28;45306;-79
2022/12/11 14:18:30;;;;;;;;;44.75;36.75;;;;;;;;5055873;28;45619;-74
2022/12/11 14:20:57;;;;;;;;;39.75;33.25;;;;;;;;5051616;28;45901;-74
2022/12/11 14:23:23;;;;;;;;;43.00;35.25;;;;;;;;5040559;28;46464;-78
2022/12/11 14:25:53;;;;;;;;;43.00;35.50;;;;;;;;5063328;28;46810;-76
2022/12/11 14:28:19;;;;;;;;;28.00;27.50;;;;;;;;5041543;28;45470;-77
2022/12/11 14:30:46;;;;;;;;;38.00;32.75;;;;;;;;5036120;28;46385;-76
2022/12/11 14:33:12;;;;;;;;;46.75;38.00;;;;;;;;5046934;28;45988;-79
2022/12/11 14:35:40;;;;;;;;;43.50;38.25;;;;;;;;5034928;28;45452;-77
2022/12/11 14:38:14;;;;;;;;;41.25;35.25;;;;;;;;5054283;28;45478;-79
2022/12/11 14:40:42;;;;;;;;;50.75;38.75;;;;;;;;5054662;28;46583;-78
2022/12/11 14:43:12;;;;;;;;;41.75;37.00;;;;;;;;5044152;28;44956;-78
2022/12/11 14:45:39;;;;;;;;;41.75;36.50;;;;;;;;5053062;28;44845;-79
2022/12/11 14:48:27;;;;;;;;;35.25;30.75;;;;;;;;5040021;28;46574;-77
2022/12/11 14:50:53;;;;;;;;;45.25;34.25;;;;;;;;5058666;28;45671;-77
2022/12/11 14:53:20;;;;;;;;;40.25;33.25;;;;;;;;5056976;28;45537;-77
2022/12/11 14:55:46;;;;;;;;;39.25;34.00;;;;;;;;5055485;28;45712;-78